Bowen, Argentina
Current Conditions -  °F | °C
As of 5:00 PM on Tuesday 21 Oct 2014 (Local Time) from SAME Reporting Station
Clear Clear  
Wind Chill: 34°   Ceiling: Unl
Heat Index: 34°   Visibility: 6mi
Dew Point:   Wind: 14mph
Humidity: 19%   Direction: 360°N
Pressure: 29.77"   Gusts: NA
Location:  35°S, 67.52°W
Report Text: SAME 212000Z 36012KT CAVOK 34/07 Q1008
Loading
Personal Weather Stations






























Interactive Weather Map
Tropical Storm Tracking
New forecast layout! Learn more

10-Day Weather Forecast

Advertisements
Track Severe Weather on mobile